Time;durP1;ratioP1;P1;durP2;ratioP2;P2;SDS_P1;SDS_P2;PMS_P1;PMS_P2;Temp;Humidity;BMP_temperature;BMP_pressure;BME280_temperature;BME280_humidity;BME280_pressure;Samples;Min_cycle;Max_cycle;Signal;HPM_P1;HPM_P2
2023/09/09 00:01:35;;;;;;;16.30;14.70;;;20.30;99.90;;;;;;5028246;28;20087;-72
2023/09/09 00:04:03;;;;;;;16.23;14.68;;;20.30;99.90;;;;;;5021035;28;20037;-72
2023/09/09 00:06:29;;;;;;;16.88;15.15;;;20.20;99.90;;;;;;5024919;28;20128;-73
2023/09/09 00:08:54;;;;;;;17.67;16.17;;;20.20;99.90;;;;;;5027760;28;20129;-72
2023/09/09 00:11:20;;;;;;;19.58;17.63;;;20.20;99.90;;;;;;5027271;28;20481;-71
2023/09/09 00:13:46;;;;;;;17.90;16.30;;;20.20;99.90;;;;;;5030988;28;20483;-72
2023/09/09 00:16:12;;;;;;;17.33;15.70;;;20.20;99.90;;;;;;5027431;28;20041;-72
2023/09/09 00:18:38;;;;;;;16.80;15.20;;;20.10;99.90;;;;;;5022677;28;20043;-72
2023/09/09 00:21:04;;;;;;;17.63;15.95;;;20.10;99.90;;;;;;5025687;28;20084;-73
2023/09/09 00:23:30;;;;;;;17.27;15.52;;;20.00;99.90;;;;;;5024963;28;20051;-72
2023/09/09 00:25:56;;;;;;;17.35;15.75;;;20.00;99.90;;;;;;5022456;28;20041;-72
2023/09/09 00:28:23;;;;;;;18.23;16.52;;;20.00;99.90;;;;;;5021344;28;20046;-72
2023/09/09 00:30:49;;;;;;;20.27;18.55;;;19.90;99.90;;;;;;5027331;28;20069;-72
2023/09/09 00:33:14;;;;;;;18.95;17.05;;;20.00;99.90;;;;;;5024915;28;20053;-73
2023/09/09 00:35:40;;;;;;;18.45;16.80;;;20.00;99.90;;;;;;5024430;28;20040;-72
2023/09/09 00:38:08;;;;;;;17.02;15.32;;;20.00;99.90;;;;;;5024167;28;20042;-72
2023/09/09 00:40:33;;;;;;;18.73;17.02;;;20.00;99.90;;;;;;5022876;28;20131;-72
2023/09/09 00:42:59;;;;;;;18.30;16.67;;;19.90;99.90;;;;;;5025319;28;20476;-72
2023/09/09 00:45:27;;;;;;;16.30;14.85;;;19.90;99.90;;;;;;5026637;28;20033;-72
2023/09/09 00:47:53;;;;;;;15.75;14.25;;;20.00;99.90;;;;;;5025387;28;20049;-73
2023/09/09 00:50:19;;;;;;;16.98;15.38;;;19.90;99.90;;;;;;5021928;28;20049;-72
2023/09/09 00:52:46;;;;;;;16.55;15.05;;;19.90;99.90;;;;;;5024812;28;20129;-72
2023/09/09 00:55:12;;;;;;;19.00;17.30;;;19.90;99.90;;;;;;5026767;28;20107;-72
2023/09/09 00:57:38;;;;;;;18.13;16.33;;;19.80;99.90;;;;;;5022812;28;20073;-72
2023/09/09 01:00:10;;;;;;;17.38;15.88;;;19.80;99.90;;;;;;5016303;28;20140;-72
2023/09/09 01:02:40;;;;;;;14.75;13.35;;;19.80;99.90;;;;;;5023357;28;20072;-72
2023/09/09 01:05:07;;;;;;;16.35;14.65;;;19.80;99.90;;;;;;5018913;28;20106;-72
2023/09/09 01:07:47;;;;;;;13.25;12.05;;;19.70;99.90;;;;;;5026485;28;20037;-72
2023/09/09 01:10:13;;;;;;;15.23;13.82;;;19.70;99.90;;;;;;5020927;28;20045;-73
2023/09/09 01:12:41;;;;;;;15.15;13.70;;;19.70;99.90;;;;;;5025464;28;20053;-72
2023/09/09 01:15:07;;;;;;;15.13;13.82;;;19.70;99.90;;;;;;5004626;28;20053;-72
2023/09/09 01:17:35;;;;;;;16.60;14.82;;;19.70;99.90;;;;;;5019774;28;20106;-72
2023/09/09 01:20:07;;;;;;;15.13;13.63;;;19.70;99.90;;;;;;5021228;28;20068;-72
2023/09/09 01:22:35;;;;;;;16.65;15.00;;;19.60;99.90;;;;;;5022994;28;20531;-72
2023/09/09 01:25:04;;;;;;;16.50;14.82;;;19.60;99.90;;;;;;5026642;28;20052;-72
2023/09/09 01:27:30;;;;;;;16.08;14.57;;;19.60;99.90;;;;;;5020063;28;20396;-72
2023/09/09 01:29:56;;;;;;;16.25;14.77;;;19.50;99.90;;;;;;5014984;28;20046;-72
2023/09/09 01:32:22;;;;;;;15.80;14.30;;;19.50;99.90;;;;;;5025375;28;20037;-73
2023/09/09 01:34:48;;;;;;;16.27;14.68;;;19.50;99.90;;;;;;5019319;28;20060;-73
2023/09/09 01:37:14;;;;;;;15.50;14.00;;;19.50;99.90;;;;;;5024918;28;20159;-72
2023/09/09 01:39:39;;;;;;;14.07;12.57;;;19.40;99.90;;;;;;5025091;28;20125;-72
2023/09/09 01:42:05;;;;;;;13.52;12.23;;;19.40;99.90;;;;;;5025652;28;20068;-72
2023/09/09 01:44:31;;;;;;;14.10;12.85;;;19.40;99.90;;;;;;5026339;28;20073;-72
2023/09/09 01:46:56;;;;;;;13.57;12.27;;;19.40;99.90;;;;;;5031540;28;20510;-72
2023/09/09 01:49:22;;;;;;;14.73;13.40;;;19.40;99.90;;;;;;5026871;28;20060;-72
2023/09/09 01:51:48;;;;;;;15.88;14.45;;;19.40;99.90;;;;;;5031209;28;20041;-72
2023/09/09 01:54:13;;;;;;;14.85;13.55;;;19.30;99.90;;;;;;5016838;28;20049;-72
2023/09/09 01:56:39;;;;;;;15.70;14.30;;;19.30;99.90;;;;;;5026258;28;20124;-72
2023/09/09 01:59:05;;;;;;;15.82;14.32;;;19.30;99.90;;;;;;5030752;28;20056;-72
2023/09/09 02:01:30;;;;;;;16.48;14.88;;;19.20;99.90;;;;;;5029133;28;20049;-72
2023/09/09 02:03:56;;;;;;;14.07;12.73;;;19.20;99.90;;;;;;5030468;28;20045;-72
2023/09/09 02:06:22;;;;;;;14.43;13.13;;;19.30;99.90;;;;;;5026379;28;20110;-72
2023/09/09 02:08:47;;;;;;;14.95;13.43;;;19.20;99.90;;;;;;5013895;28;20117;-72
2023/09/09 02:11:13;;;;;;;16.80;15.30;;;19.20;99.90;;;;;;5020779;28;20492;-72
2023/09/09 02:13:39;;;;;;;17.25;15.55;;;19.20;99.90;;;;;;5022889;28;20037;-72
2023/09/09 02:16:08;;;;;;;19.33;17.45;;;19.20;99.90;;;;;;5026727;28;20045;-72
2023/09/09 02:18:37;;;;;;;20.00;18.20;;;19.20;99.90;;;;;;5017618;28;20727;-72
2023/09/09 02:21:04;;;;;;;21.08;19.05;;;19.10;99.90;;;;;;5028194;28;20048;-72
2023/09/09 02:23:29;;;;;;;19.15;17.45;;;19.10;99.90;;;;;;5025799;28;20080;-72
2023/09/09 02:25:56;;;;;;;18.55;16.85;;;19.10;99.90;;;;;;5028409;28;20072;-72
2023/09/09 02:28:22;;;;;;;20.98;19.08;;;19.10;99.90;;;;;;5020018;28;20081;-72
2023/09/09 02:30:48;;;;;;;21.52;19.45;;;19.00;99.90;;;;;;5023064;28;20038;-73
2023/09/09 02:33:14;;;;;;;23.10;20.75;;;19.00;99.90;;;;;;5032060;28;20084;-73
2023/09/09 02:35:43;;;;;;;20.52;18.67;;;18.90;99.90;;;;;;5013039;28;20074;-72
2023/09/09 02:38:09;;;;;;;20.42;18.52;;;18.90;99.90;;;;;;5027364;28;20156;-72
2023/09/09 02:40:35;;;;;;;21.45;19.35;;;18.90;99.90;;;;;;5024367;28;20140;-72
2023/09/09 02:43:00;;;;;;;20.17;18.30;;;18.90;99.90;;;;;;5028608;28;20069;-73
2023/09/09 02:45:26;;;;;;;20.40;18.55;;;18.90;99.90;;;;;;5025221;28;20029;-73
2023/09/09 02:47:52;;;;;;;20.17;18.23;;;18.90;99.90;;;;;;5022602;28;20470;-72
2023/09/09 02:50:17;;;;;;;19.80;17.77;;;18.90;99.90;;;;;;5022765;28;20041;-73
2023/09/09 02:52:43;;;;;;;18.23;16.52;;;18.90;99.90;;;;;;5017157;28;20046;-72
2023/09/09 02:55:09;;;;;;;18.70;17.08;;;18.90;99.90;;;;;;5029468;28;20068;-72
2023/09/09 02:57:34;;;;;;;18.80;17.20;;;18.90;99.90;;;;;;5024280;28;20041;-73
2023/09/09 03:00:00;;;;;;;18.98;17.27;;;18.80;99.90;;;;;;5028340;28;20128;-73
2023/09/09 03:02:26;;;;;;;17.98;16.17;;;18.80;99.90;;;;;;5019071;28;20046;-73
2023/09/09 03:04:51;;;;;;;19.25;17.58;;;18.80;99.90;;;;;;5019103;28;20536;-73
2023/09/09 03:07:17;;;;;;;21.10;19.15;;;18.80;99.90;;;;;;5020727;28;20045;-72
2023/09/09 03:09:45;;;;;;;22.05;20.00;;;18.80;99.90;;;;;;5022962;28;20045;-73
2023/09/09 03:12:11;;;;;;;20.52;18.73;;;18.80;99.90;;;;;;5030292;28;20045;-73
2023/09/09 03:14:36;;;;;;;21.77;19.88;;;18.80;99.90;;;;;;5028850;28;20084;-72
2023/09/09 03:17:02;;;;;;;19.55;17.70;;;18.70;99.90;;;;;;5012699;28;20034;-72
2023/09/09 03:19:28;;;;;;;22.38;20.33;;;18.70;99.90;;;;;;5028067;28;20412;-72
2023/09/09 03:21:54;;;;;;;21.55;19.75;;;18.70;99.90;;;;;;5027244;28;20041;-73
2023/09/09 03:24:20;;;;;;;23.05;20.83;;;18.70;99.90;;;;;;5024969;28;20550;-72
2023/09/09 03:26:45;;;;;;;22.85;20.85;;;18.70;99.90;;;;;;5026192;28;20128;-72
2023/09/09 03:29:11;;;;;;;24.10;21.90;;;18.70;99.90;;;;;;5025245;28;20050;-72
2023/09/09 03:31:37;;;;;;;24.02;21.77;;;18.70;99.90;;;;;;5028596;28;20033;-73
2023/09/09 03:34:03;;;;;;;23.65;21.42;;;18.70;99.90;;;;;;5020040;28;20053;-71
2023/09/09 03:36:29;;;;;;;23.45;21.35;;;18.60;99.90;;;;;;5017122;28;20116;-72
2023/09/09 03:38:55;;;;;;;23.15;21.08;;;18.60;99.90;;;;;;5016651;28;20041;-72
2023/09/09 03:41:20;;;;;;;25.15;22.85;;;18.60;99.90;;;;;;5021445;28;20049;-73
2023/09/09 03:43:46;;;;;;;25.42;23.10;;;18.60;99.90;;;;;;5015863;28;20443;-72
2023/09/09 03:46:12;;;;;;;26.88;24.35;;;18.60;99.90;;;;;;5022649;28;20560;-72
2023/09/09 03:48:38;;;;;;;28.10;25.67;;;18.50;99.90;;;;;;5027627;28;20128;-72
2023/09/09 03:51:04;;;;;;;28.13;25.73;;;18.50;99.90;;;;;;5030364;28;20380;-73
2023/09/09 03:53:29;;;;;;;28.58;25.95;;;18.50;99.90;;;;;;5028593;28;20101;-72
2023/09/09 03:55:55;;;;;;;30.15;27.55;;;18.50;99.90;;;;;;5026852;28;20037;-71
2023/09/09 03:58:23;;;;;;;32.00;28.95;;;18.50;99.90;;;;;;5027500;28;20053;-72
2023/09/09 04:00:49;;;;;;;32.10;29.25;;;18.50;99.90;;;;;;5016680;28;20064;-72
2023/09/09 04:03:15;;;;;;;33.10;30.05;;;18.50;99.90;;;;;;5027633;28;20049;-73
2023/09/09 04:05:41;;;;;;;37.78;34.38;;;18.50;99.90;;;;;;5026948;28;20132;-72
2023/09/09 04:08:09;;;;;;;35.72;32.45;;;18.50;99.90;;;;;;5018453;28;20049;-72
2023/09/09 04:10:38;;;;;;;35.13;31.75;;;18.50;99.90;;;;;;5027277;28;20518;-72
2023/09/09 04:13:03;;;;;;;38.97;35.33;;;18.40;99.90;;;;;;5028249;28;20053;-72
2023/09/09 04:15:29;;;;;;;40.38;36.75;;;18.40;99.90;;;;;;5027962;28;20053;-72
2023/09/09 04:17:55;;;;;;;37.75;34.15;;;18.40;99.90;;;;;;5011762;28;20057;-72
2023/09/09 04:20:20;;;;;;;38.13;34.72;;;18.40;99.90;;;;;;5027247;28;20701;-72
2023/09/09 04:22:46;;;;;;;36.63;33.22;;;18.40;99.90;;;;;;5026528;28;20045;-72
2023/09/09 04:25:12;;;;;;;36.42;33.08;;;18.40;99.90;;;;;;5021728;28;20041;-73
2023/09/09 04:27:37;;;;;;;39.03;35.42;;;18.40;99.90;;;;;;5027710;28;20049;-72
2023/09/09 04:30:03;;;;;;;35.60;32.50;;;18.40;99.90;;;;;;5025990;28;20057;-72
2023/09/09 04:32:31;;;;;;;37.25;33.83;;;18.40;99.90;;;;;;5028164;28;20489;-72
2023/09/09 04:34:58;;;;;;;35.22;31.85;;;18.30;99.90;;;;;;5022816;28;20044;-72
2023/09/09 04:37:24;;;;;;;35.45;32.08;;;18.30;99.90;;;;;;5006114;28;20204;-72
2023/09/09 04:39:50;;;;;;;38.13;34.72;;;18.30;99.90;;;;;;5024574;28;20435;-72
2023/09/09 04:42:17;;;;;;;42.28;38.35;;;18.30;99.90;;;;;;5027239;28;20052;-72
2023/09/09 04:44:42;;;;;;;42.23;38.53;;;18.40;99.90;;;;;;5027461;28;20029;-72
2023/09/09 04:47:08;;;;;;;44.40;40.22;;;18.30;99.90;;;;;;5020674;28;20107;-72
2023/09/09 04:49:34;;;;;;;42.75;38.85;;;18.30;99.90;;;;;;5025782;28;20128;-72
2023/09/09 04:51:59;;;;;;;45.78;41.55;;;18.30;99.90;;;;;;5027098;28;20044;-72
2023/09/09 04:54:25;;;;;;;42.17;38.38;;;18.30;99.90;;;;;;5022152;28;20045;-72
2023/09/09 04:56:51;;;;;;;42.38;38.33;;;18.30;99.90;;;;;;5024232;28;20047;-72
2023/09/09 04:59:17;;;;;;;42.05;38.25;;;18.30;99.90;;;;;;5022874;28;20049;-72
2023/09/09 05:01:42;;;;;;;40.95;37.40;;;18.30;99.90;;;;;;5028262;28;20119;-72
2023/09/09 05:04:08;;;;;;;41.20;37.47;;;18.30;99.90;;;;;;5024119;28;20052;-72
2023/09/09 05:06:34;;;;;;;39.53;35.92;;;18.20;99.90;;;;;;5024997;28;20754;-72
2023/09/09 05:09:00;;;;;;;42.70;38.78;;;18.20;99.90;;;;;;5027604;28;20392;-72
2023/09/09 05:11:25;;;;;;;39.55;36.10;;;18.20;99.90;;;;;;5022037;28;20385;-72
2023/09/09 05:13:54;;;;;;;43.90;39.92;;;18.20;99.90;;;;;;5021355;28;20126;-72
2023/09/09 05:16:19;;;;;;;43.30;39.47;;;18.20;99.90;;;;;;5018581;28;20077;-72
2023/09/09 05:18:45;;;;;;;42.75;38.80;;;18.20;99.90;;;;;;5013786;28;20037;-73
2023/09/09 05:21:11;;;;;;;45.10;41.05;;;18.20;99.90;;;;;;5029779;28;20099;-72
2023/09/09 05:23:36;;;;;;;46.13;41.97;;;18.20;99.90;;;;;;5030810;28;20056;-72
2023/09/09 05:26:02;;;;;;;46.15;41.95;;;18.20;99.90;;;;;;5028984;28;20030;-72
2023/09/09 05:28:28;;;;;;;45.92;41.78;;;18.20;99.90;;;;;;5028743;28;20041;-72
2023/09/09 05:30:53;;;;;;;46.90;42.90;;;18.20;99.90;;;;;;5022271;28;20107;-72
2023/09/09 05:33:20;;;;;;;44.22;40.33;;;18.30;99.90;;;;;;5024166;28;20037;-72
2023/09/09 05:35:50;;;;;;;45.75;41.75;;;18.30;99.90;;;;;;5030780;28;20044;-72
2023/09/09 05:38:16;;;;;;;46.22;42.13;;;18.30;99.90;;;;;;5030238;28;20055;-72
2023/09/09 05:40:42;;;;;;;50.42;45.80;;;18.40;99.90;;;;;;5016565;28;20117;-72
2023/09/09 05:43:08;;;;;;;49.90;45.40;;;18.40;99.90;;;;;;5032651;28;20053;-72
2023/09/09 05:45:33;;;;;;;51.20;46.60;;;18.40;99.90;;;;;;5031943;28;20052;-72
2023/09/09 05:47:59;;;;;;;50.35;45.90;;;18.50;99.90;;;;;;5031733;28;20041;-72
2023/09/09 05:50:25;;;;;;;47.28;42.78;;;18.50;99.90;;;;;;5017554;28;20080;-72
2023/09/09 05:52:50;;;;;;;49.53;44.85;;;18.50;99.90;;;;;;5011530;28;20042;-72
2023/09/09 05:55:16;;;;;;;48.10;43.80;;;18.60;99.90;;;;;;5029211;28;20048;-72
2023/09/09 05:57:42;;;;;;;47.60;43.30;;;18.70;99.90;;;;;;5026423;28;20053;-72
2023/09/09 06:00:09;;;;;;;46.60;42.35;;;18.70;99.90;;;;;;5025489;28;20054;-68
2023/09/09 06:02:35;;;;;;;44.90;41.00;;;18.80;99.90;;;;;;5029447;28;20041;-69
2023/09/09 06:05:00;;;;;;;43.25;39.30;;;18.90;99.90;;;;;;5023717;28;20554;-69
2023/09/09 06:07:26;;;;;;;40.60;37.00;;;19.00;99.90;;;;;;5016824;28;20044;-69
2023/09/09 06:09:52;;;;;;;42.42;38.70;;;19.00;99.90;;;;;;5023391;28;20712;-71
2023/09/09 06:12:18;;;;;;;41.65;37.72;;;19.10;99.90;;;;;;5027606;28;20099;-69
2023/09/09 06:14:43;;;;;;;40.88;37.15;;;19.10;99.90;;;;;;5028671;28;20507;-70
2023/09/09 06:17:09;;;;;;;41.10;37.55;;;19.20;99.90;;;;;;5024049;28;20550;-71
2023/09/09 06:19:35;;;;;;;40.53;36.80;;;19.30;99.90;;;;;;5025814;28;20053;-71
2023/09/09 06:22:00;;;;;;;38.53;35.13;;;19.30;99.90;;;;;;5026992;28;20060;-71
2023/09/09 06:24:27;;;;;;;38.60;35.30;;;19.40;99.90;;;;;;5028795;28;20045;-70
2023/09/09 06:26:53;;;;;;;37.72;34.03;;;19.50;99.90;;;;;;5021768;28;20485;-71
2023/09/09 06:29:19;;;;;;;37.97;34.47;;;19.50;99.90;;;;;;5023287;28;20037;-70
2023/09/09 06:31:44;;;;;;;37.83;34.22;;;19.60;99.90;;;;;;5021340;28;20056;-71
2023/09/09 06:34:13;;;;;;;40.47;36.58;;;19.70;99.90;;;;;;5026622;28;20049;-71
2023/09/09 06:36:38;;;;;;;37.90;34.50;;;19.70;99.90;;;;;;5022600;28;20042;-71
2023/09/09 06:39:04;;;;;;;36.00;32.70;;;19.70;99.90;;;;;;5026250;28;20049;-71
2023/09/09 06:41:30;;;;;;;38.50;34.97;;;19.80;99.90;;;;;;5026727;28;20490;-71
2023/09/09 06:43:56;;;;;;;36.92;33.53;;;19.90;99.90;;;;;;5023337;28;20045;-71
2023/09/09 06:46:22;;;;;;;37.25;33.83;;;19.90;99.90;;;;;;5024441;28;20042;-70
2023/09/09 06:48:47;;;;;;;34.50;31.38;;;20.00;99.90;;;;;;5023862;28;20041;-71
2023/09/09 06:51:13;;;;;;;36.50;33.15;;;20.10;99.90;;;;;;5021375;28;20060;-70
2023/09/09 06:53:39;;;;;;;36.78;33.53;;;20.10;99.90;;;;;;5025700;28;20061;-70
2023/09/09 06:56:05;;;;;;;37.60;34.20;;;20.20;99.90;;;;;;5026986;28;20281;-70
2023/09/09 06:58:30;;;;;;;35.13;32.05;;;20.30;99.90;;;;;;5023871;28;20461;-71
2023/09/09 07:00:56;;;;;;;36.10;32.75;;;20.30;99.90;;;;;;5024418;28;20583;-72
2023/09/09 07:03:22;;;;;;;36.47;32.90;;;20.40;99.90;;;;;;5019116;28;20054;-71
2023/09/09 07:05:48;;;;;;;35.65;32.30;;;20.40;99.90;;;;;;5009485;28;20070;-71
2023/09/09 07:08:13;;;;;;;36.28;32.85;;;20.50;99.90;;;;;;5017848;28;20092;-70
2023/09/09 07:10:39;;;;;;;35.03;31.88;;;20.50;99.90;;;;;;5030149;28;20045;-70
2023/09/09 07:13:05;;;;;;;34.55;31.38;;;20.60;99.90;;;;;;5029326;28;20068;-69
2023/09/09 07:15:33;;;;;;;34.67;31.67;;;20.60;99.90;;;;;;5021514;28;20041;-71
2023/09/09 07:17:59;;;;;;;34.88;31.55;;;20.70;99.90;;;;;;5029069;28;20034;-71
2023/09/09 07:20:25;;;;;;;33.70;30.60;;;20.80;99.90;;;;;;5021651;28;20072;-71
2023/09/09 07:22:50;;;;;;;34.53;31.23;;;20.90;99.90;;;;;;5015668;28;20404;-70
2023/09/09 07:25:16;;;;;;;33.38;30.15;;;20.90;99.90;;;;;;5021459;28;20050;-69
2023/09/09 07:27:42;;;;;;;35.75;32.60;;;20.90;99.90;;;;;;5020490;28;20125;-70
2023/09/09 07:30:10;;;;;;;32.75;29.90;;;21.00;99.90;;;;;;5027393;28;20164;-70
2023/09/09 07:32:35;;;;;;;35.25;32.08;;;21.00;99.90;;;;;;5025374;28;20076;-70
2023/09/09 07:35:05;;;;;;;34.60;31.50;;;21.10;99.90;;;;;;5019816;28;20381;-69
2023/09/09 07:37:31;;;;;;;34.20;30.92;;;21.10;99.90;;;;;;5028708;28;20041;-71
2023/09/09 07:40:00;;;;;;;36.25;32.03;;;21.20;99.90;;;;;;5024381;28;20712;-72
2023/09/09 07:42:26;;;;;;;35.92;32.10;;;21.30;99.90;;;;;;5027462;28;20042;-72
2023/09/09 07:44:53;;;;;;;34.50;31.42;;;21.30;99.90;;;;;;5029589;28;20049;-72
2023/09/09 07:47:20;;;;;;;;;;;21.40;99.90;;;;;;5029493;28;20081;-72
2023/09/09 07:49:46;;;;;;;32.92;29.80;;;21.40;99.90;;;;;;5015986;28;19928;-72
2023/09/09 07:52:12;;;;;;;33.15;30.05;;;21.50;99.90;;;;;;5019438;28;20060;-73
2023/09/09 07:54:37;;;;;;;36.42;32.58;;;21.50;99.90;;;;;;5026127;28;20393;-72
2023/09/09 07:57:03;;;;;;;33.10;29.98;;;21.60;99.90;;;;;;5018361;28;20038;-71
2023/09/09 07:59:29;;;;;;;35.72;32.50;;;21.70;99.90;;;;;;5026171;28;20065;-72
2023/09/09 08:01:56;;;;;;;36.08;32.95;;;21.70;99.90;;;;;;5022681;28;20096;-72
2023/09/09 08:04:30;;;;;;;36.60;33.30;;;21.80;99.90;;;;;;5075580;27;1270561;-71
2023/09/09 08:06:56;;;;;;;36.25;32.47;;;21.80;99.90;;;;;;5103752;28;20048;-71
2023/09/09 08:09:22;;;;;;;34.88;31.45;;;21.90;99.90;;;;;;5106083;28;20115;-71
2023/09/09 08:11:47;;;;;;;34.90;31.80;;;22.00;99.90;;;;;;5063578;28;20459;-71
2023/09/09 08:14:13;;;;;;;39.28;35.05;;;22.10;99.90;;;;;;5082511;28;20093;-71
2023/09/09 08:16:40;;;;;;;36.88;33.55;;;22.10;99.90;;;;;;5102365;28;20111;-71
2023/09/09 08:19:06;;;;;;;35.97;32.78;;;22.20;99.90;;;;;;5080948;28;20097;-71
2023/09/09 08:21:32;;;;;;;33.78;30.50;;;22.20;99.90;;;;;;5098610;28;20028;-70
2023/09/09 08:23:59;;;;;;;35.08;31.98;;;22.30;99.90;;;;;;5086782;28;20044;-71
2023/09/09 08:26:25;;;;;;;;;;;22.40;99.90;;;;;;5105214;28;20032;-72
2023/09/09 08:28:50;;;;;;;32.70;29.57;;;22.40;99.90;;;;;;5086041;28;19969;-71
2023/09/09 08:31:16;;;;;;;33.35;30.10;;;22.40;99.90;;;;;;5075779;28;20032;-70
2023/09/09 08:33:42;;;;;;;33.67;30.35;;;22.50;99.90;;;;;;5102821;28;20115;-70
2023/09/09 08:36:07;;;;;;;30.88;28.05;;;22.60;99.90;;;;;;5100856;28;20170;-71
2023/09/09 08:38:33;;;;;;;33.65;30.30;;;22.60;99.90;;;;;;5101037;28;20068;-72
2023/09/09 08:41:08;;;;;;;34.00;30.90;;;22.70;99.90;;;;;;5092368;28;20105;-71
2023/09/09 08:43:48;;;;;;;34.22;31.02;;;22.80;99.90;;;;;;5078973;28;20051;-72
2023/09/09 08:46:16;;;;;;;34.30;31.25;;;22.90;99.90;;;;;;5092416;28;20054;-72
2023/09/09 08:48:43;;;;;;;33.97;30.63;;;22.90;99.90;;;;;;5102788;28;20050;-71
2023/09/09 08:51:14;;;;;;;34.05;30.75;;;23.00;99.90;;;;;;5102384;28;20127;-72
2023/09/09 08:53:49;;;;;;;33.53;30.63;;;23.10;99.90;;;;;;5105539;28;20032;-72
2023/09/09 08:56:17;;;;;;;35.03;31.70;;;23.20;99.90;;;;;;5081353;28;20054;-71
2023/09/09 08:58:44;;;;;;;32.42;29.38;;;23.30;99.90;;;;;;5097240;28;20847;-72
2023/09/09 09:01:11;;;;;;;33.88;30.58;;;23.40;99.90;;;;;;5103396;28;20036;-72
2023/09/09 09:03:37;;;;;;;33.92;30.92;;;23.40;99.90;;;;;;5074780;28;20517;-71
2023/09/09 09:06:05;;;;;;;35.75;32.05;;;23.50;99.90;;;;;;5075290;28;20052;-72
2023/09/09 09:08:31;;;;;;;32.35;29.55;;;23.60;99.90;;;;;;5079188;28;20048;-73
2023/09/09 09:11:04;;;;;;;31.73;28.87;;;23.60;99.90;;;;;;5075414;28;20048;-73
2023/09/09 09:13:38;;;;;;;32.83;29.80;;;23.70;99.90;;;;;;5078796;28;20314;-74
2023/09/09 09:16:04;;;;;;;32.25;29.10;;;23.80;99.90;;;;;;5069818;28;20049;-74
2023/09/09 09:18:30;;;;;;;34.88;31.50;;;23.90;99.90;;;;;;5058209;28;20287;-73
2023/09/09 09:21:10;;;;;;;33.03;29.60;;;23.90;99.90;;;;;;5066582;28;20129;-72
2023/09/09 09:23:45;;;;;;;32.67;29.77;;;23.90;99.90;;;;;;5057425;28;20048;-72
2023/09/09 09:26:31;;;;;;;33.27;29.97;;;24.00;99.90;;;;;;5070022;28;20162;-74
2023/09/09 09:29:04;;;;;;;35.03;31.58;;;24.10;99.90;;;;;;5060211;28;20060;-80
2023/09/09 09:31:30;;;;;;;31.45;28.63;;;24.20;99.90;;;;;;5063055;28;20097;-72
2023/09/09 09:33:58;;;;;;;33.40;29.88;;;24.20;99.90;;;;;;5065194;28;20041;-72
2023/09/09 09:36:25;;;;;;;32.28;29.10;;;24.40;99.90;;;;;;5066490;28;20052;-73
2023/09/09 09:38:51;;;;;;;30.55;27.42;;;24.40;99.90;;;;;;5068859;28;20400;-72
2023/09/09 09:41:18;;;;;;;30.35;27.48;;;24.40;99.90;;;;;;5069628;28;20572;-72
2023/09/09 09:43:47;;;;;;;29.88;27.08;;;24.50;99.90;;;;;;5068391;28;20048;-72
2023/09/09 09:46:18;;;;;;;28.98;26.08;;;24.60;99.90;;;;;;5065206;28;20062;-72
2023/09/09 09:48:44;;;;;;;26.08;23.48;;;24.70;99.90;;;;;;5058558;28;20059;-72
2023/09/09 09:51:10;;;;;;;27.75;25.00;;;24.70;99.90;;;;;;5063505;28;20053;-72
2023/09/09 09:53:48;;;;;;;28.55;25.85;;;24.80;99.90;;;;;;5070180;28;20041;-72
2023/09/09 09:56:17;;;;;;;29.40;24.95;;;24.80;99.90;;;;;;5064420;28;20047;-73
2023/09/09 09:58:44;;;;;;;26.55;23.95;;;24.90;99.90;;;;;;5070633;28;20049;-72
2023/09/09 10:01:11;;;;;;;26.25;23.65;;;25.00;99.90;;;;;;5057949;28;20042;-72
2023/09/09 10:03:51;;;;;;;27.45;24.75;;;25.00;99.90;;;;;;5057280;28;20060;-71
2023/09/09 10:06:26;;;;;;;24.92;22.30;;;25.10;99.90;;;;;;5065787;28;20040;-72
2023/09/09 10:09:06;;;;;;;23.63;21.25;;;25.10;99.90;;;;;;5068244;28;20135;-73
2023/09/09 10:11:55;;;;;;;24.48;21.85;;;25.20;99.90;;;;;;5069385;28;20119;-72
2023/09/09 10:14:24;;;;;;;29.13;26.08;;;25.30;99.90;;;;;;5033297;28;20060;-72
2023/09/09 10:16:52;;;;;;;29.67;26.90;;;25.40;99.90;;;;;;5064922;28;20041;-73
2023/09/09 10:19:19;;;;;;;27.10;24.25;;;25.40;99.90;;;;;;5063122;28;20158;-72
2023/09/09 10:21:47;;;;;;;27.38;24.70;;;25.50;99.90;;;;;;5056969;28;20071;-74
2023/09/09 10:24:14;;;;;;;26.73;24.08;;;25.60;99.90;;;;;;5055402;28;20072;-72
2023/09/09 10:26:42;;;;;;;23.75;19.15;;;25.60;99.90;;;;;;5064267;28;20044;-73
2023/09/09 10:29:08;;;;;;;19.98;16.17;;;25.70;99.90;;;;;;5067449;28;20115;-72
2023/09/09 10:31:36;;;;;;;18.05;16.23;;;25.80;99.90;;;;;;5061887;28;20062;-72
2023/09/09 10:34:03;;;;;;;16.85;15.20;;;26.00;99.90;;;;;;5065315;28;20029;-72
2023/09/09 10:36:36;;;;;;;17.73;15.90;;;26.00;99.90;;;;;;5057381;28;20049;-73
2023/09/09 10:39:02;;;;;;;20.70;15.77;;;26.00;99.90;;;;;;5054144;28;20052;-74
2023/09/09 10:41:30;;;;;;;16.65;14.98;;;26.10;99.90;;;;;;5058929;28;20041;-76
2023/09/09 10:43:55;;;;;;;19.13;17.13;;;26.10;99.90;;;;;;5068058;28;20048;-73
2023/09/09 10:46:37;;;;;;;19.02;17.23;;;26.20;99.90;;;;;;5064489;28;20044;-74
2023/09/09 10:49:03;;;;;;;17.42;15.43;;;26.30;99.90;;;;;;5069916;28;20076;-73
2023/09/09 10:51:29;;;;;;;;;;;26.30;99.90;;;;;;5066628;28;20193;-74
2023/09/09 10:54:11;;;;;;;13.05;11.65;;;26.40;99.90;;;;;;5062198;28;20482;-73
2023/09/09 10:57:02;;;;;;;15.55;13.80;;;26.40;99.90;;;;;;5063919;28;20057;-74
2023/09/09 10:59:32;;;;;;;13.75;11.98;;;26.50;99.90;;;;;;5056225;28;20119;-74
2023/09/09 11:02:18;;;;;;;15.80;12.10;;;26.50;99.90;;;;;;5062974;28;20115;-74
2023/09/09 11:05:10;;;;;;;17.92;14.77;;;26.60;99.90;;;;;;5067409;28;20053;-75
2023/09/09 11:07:44;;;;;;;17.50;15.63;;;26.70;99.90;;;;;;5069039;28;20036;-74
2023/09/09 11:10:15;;;;;;;19.55;17.30;;;26.80;99.90;;;;;;5069551;28;20048;-75
2023/09/09 11:12:56;;;;;;;18.23;16.10;;;26.80;99.90;;;;;;5067615;28;20055;-74
2023/09/09 11:15:25;;;;;;;17.85;15.90;;;26.90;99.90;;;;;;5062713;28;20048;-74
2023/09/09 11:17:51;;;;;;;20.13;17.92;;;26.90;99.90;;;;;;5057407;28;20044;-74
2023/09/09 11:20:20;;;;;;;20.55;18.35;;;26.90;99.90;;;;;;5069549;28;20441;-72
2023/09/09 11:22:46;;;;;;;20.52;16.83;;;26.90;99.90;;;;;;5059561;28;20045;-72
2023/09/09 11:25:16;;;;;;;24.27;19.50;;;27.00;99.90;;;;;;5064619;28;20040;-75
2023/09/09 11:27:43;;;;;;;18.65;15.90;;;27.00;99.90;;;;;;5044244;28;20101;-74
2023/09/09 11:30:09;;;;;;;;;;;27.10;99.90;;;;;;5067727;28;20033;-74
2023/09/09 11:32:35;;;;;;;19.35;17.23;;;27.10;99.90;;;;;;5066344;28;19924;-74
2023/09/09 11:35:00;;;;;;;20.23;18.23;;;27.10;99.90;;;;;;5055206;28;20082;-76
2023/09/09 11:37:27;;;;;;;21.43;18.77;;;27.20;99.90;;;;;;5057140;28;20091;-78
2023/09/09 11:39:53;;;;;;;21.20;18.40;;;27.20;99.90;;;;;;5065477;28;20094;-79
2023/09/09 11:42:20;;;;;;;20.88;18.80;;;27.20;99.90;;;;;;5068166;28;20134;-76
2023/09/09 11:44:48;;;;;;;23.33;16.98;;;27.30;99.90;;;;;;5067597;28;20127;-76
2023/09/09 11:47:15;;;;;;;18.05;16.05;;;27.30;99.90;;;;;;5066004;28;20480;-76
2023/09/09 11:49:48;;;;;;;22.33;19.33;;;27.40;99.90;;;;;;5058547;28;20048;-75
2023/09/09 11:52:17;;;;;;;28.27;21.52;;;27.40;99.90;;;;;;5059151;28;20525;-75
2023/09/09 11:54:46;;;;;;;21.45;19.17;;;27.50;99.90;;;;;;5065493;28;20060;-74
2023/09/09 11:57:11;;;;;;;22.38;19.55;;;27.50;99.90;;;;;;5063350;28;20072;-75
2023/09/09 11:59:44;;;;;;;19.20;17.10;;;27.50;99.90;;;;;;5067456;28;20079;-75
2023/09/09 12:02:24;;;;;;;20.10;16.85;;;27.60;99.90;;;;;;5065541;28;20044;-74
2023/09/09 12:05:01;;;;;;;19.65;17.65;;;27.60;99.90;;;;;;5061782;28;20133;-75
2023/09/09 12:07:29;;;;;;;23.95;19.42;;;27.70;99.90;;;;;;5065294;28;20053;-75
2023/09/09 12:09:58;;;;;;;22.35;19.95;;;27.70;99.90;;;;;;5059884;28;21023;-74
2023/09/09 12:12:24;;;;;;;20.55;18.38;;;27.80;99.90;;;;;;5062215;28;20040;-75
2023/09/09 12:14:52;;;;;;;22.30;20.00;;;27.80;99.90;;;;;;5056912;28;20048;-74
2023/09/09 12:17:18;;;;;;;21.58;19.27;;;27.90;99.90;;;;;;5066018;28;20051;-75
2023/09/09 12:20:01;;;;;;;24.20;21.07;;;27.90;99.90;;;;;;5067381;28;20052;-75
2023/09/09 12:22:51;;;;;;;23.60;20.50;;;27.80;99.90;;;;;;5066564;28;20674;-75
2023/09/09 12:25:30;;;;;;;21.70;19.55;;;27.80;99.90;;;;;;5062462;28;20040;-76
2023/09/09 12:27:56;;;;;;;21.20;19.10;;;27.70;99.90;;;;;;5055946;28;20801;-76
2023/09/09 12:30:40;;;;;;;25.03;22.40;;;27.60;99.90;;;;;;5064109;28;20119;-76